Time;durP1;ratioP1;P1;durP2;ratioP2;P2;SDS_P1;SDS_P2;PMS_P1;PMS_P2;Temp;Humidity;BMP_temperature;BMP_pressure;BME280_temperature;BME280_humidity;BME280_pressure;Samples;Min_cycle;Max_cycle;Signal;HPM_P1;HPM_P2
2022/07/21 00:00:29;;;;;;;;;2.50;2.00;;;;;24.10;49.57;101384.94;5022251;28;45520;-38
2022/07/21 00:02:56;;;;;;;;;4.50;3.25;;;;;24.05;49.82;101382.59;5031609;28;45952;-38
2022/07/21 00:05:22;;;;;;;;;3.25;3.25;;;;;24.04;50.07;101378.19;5027279;28;45593;-38
2022/07/21 00:07:47;;;;;;;;;3.00;3.00;;;;;24.01;50.04;101374.88;5052869;28;45407;-38
2022/07/21 00:10:13;;;;;;;;;3.00;2.25;;;;;23.98;50.35;101367.13;5030688;28;45530;-38
2022/07/21 00:12:39;;;;;;;;;2.25;2.25;;;;;24.01;50.22;101365.06;5034958;28;45534;-38
2022/07/21 00:15:05;;;;;;;;;3.50;3.50;;;;;24.06;50.65;101373.59;5030240;28;45558;-38
2022/07/21 00:17:31;;;;;;;;;2.00;2.00;;;;;24.02;50.42;101369.44;5035823;28;45408;-38
2022/07/21 00:19:56;;;;;;;;;2.00;2.00;;;;;23.94;50.07;101373.63;5036844;28;45412;-39
2022/07/21 00:22:22;;;;;;;;;2.25;2.25;;;;;23.90;50.34;101369.50;5034233;28;46149;-38
2022/07/21 00:24:47;;;;;;;;;3.00;3.00;;;;;23.84;50.65;101371.63;5035328;28;45314;-38
2022/07/21 00:27:13;;;;;;;;;1.50;1.50;;;;;23.81;50.49;101369.19;5035586;28;65520;-37
2022/07/21 00:29:38;;;;;;;;;2.75;2.75;;;;;23.83;50.91;101358.38;5032352;28;56837;-39
2022/07/21 00:32:05;;;;;;;;;4.50;2.75;;;;;23.84;50.88;101363.63;5030431;28;47249;-39
2022/07/21 00:34:31;;;;;;;;;3.00;3.00;;;;;23.87;50.54;101367.91;5032022;28;45304;-39
2022/07/21 00:36:57;;;;;;;;;2.75;2.75;;;;;23.87;50.34;101363.41;5032568;28;45469;-39
2022/07/21 00:39:22;;;;;;;;;3.25;2.50;;;;;23.89;50.79;101373.97;5028688;28;45461;-36
2022/07/21 00:41:48;;;;;;;;;3.25;3.00;;;;;23.90;50.64;101372.16;5031496;28;45525;-38
2022/07/21 00:44:24;;;;;;;;;3.25;3.00;;;;;23.94;50.53;101374.50;5030577;28;48331;-44
2022/07/21 00:46:50;;;;;;;;;3.75;3.75;;;;;23.94;50.58;101379.84;5027430;28;45510;-38
2022/07/21 00:49:16;;;;;;;;;6.00;3.00;;;;;23.96;50.32;101374.41;5048643;28;45844;-38
2022/07/21 00:51:41;;;;;;;;;4.25;4.25;;;;;23.96;50.16;101369.91;5014969;28;47004;-38
2022/07/21 00:54:07;;;;;;;;;3.50;2.25;;;;;23.96;50.65;101367.22;5031230;28;45277;-39
2022/07/21 00:56:32;;;;;;;;;3.25;3.25;;;;;23.94;50.48;101370.97;5030219;28;45797;-39
2022/07/21 00:58:57;;;;;;;;;3.00;3.00;;;;;23.90;50.55;101364.97;5017312;28;62097;-38
2022/07/21 01:01:23;;;;;;;;;3.50;3.00;;;;;23.90;50.87;101361.47;5035384;28;45885;-39
2022/07/21 01:03:48;;;;;;;;;3.50;3.50;;;;;23.89;50.92;101365.97;5035984;28;45299;-39
2022/07/21 01:06:14;;;;;;;;;3.75;3.75;;;;;23.85;50.75;101359.13;5026689;28;45459;-39
2022/07/21 01:08:39;;;;;;;;;3.75;2.00;;;;;23.85;51.16;101365.34;5033746;28;45344;-37
2022/07/21 01:11:05;;;;;;;;;3.50;3.25;;;;;23.80;50.99;101364.81;5028817;28;45661;-37
2022/07/21 01:13:31;;;;;;;;;3.00;3.00;;;;;23.72;51.01;101363.63;5035548;28;47298;-38
2022/07/21 01:15:56;;;;;;;;;6.50;4.00;;;;;23.69;51.28;101362.03;5030954;28;45538;-38
2022/07/21 01:18:22;;;;;;;;;2.00;2.00;;;;;23.72;51.28;101368.97;5034501;28;45537;-40
2022/07/21 01:21:02;;;;;;;;;4.00;3.25;;;;;23.67;51.28;101367.50;5032316;28;45438;-38
2022/07/21 01:23:27;;;;;;;;;4.00;4.00;;;;;23.71;51.47;101368.13;5032564;28;45595;-38
2022/07/21 01:25:53;;;;;;;;;4.50;3.75;;;;;23.72;51.25;101366.31;5030909;28;45490;-39
2022/07/21 01:28:18;;;;;;;;;4.00;3.50;;;;;23.74;51.19;101362.53;5031823;28;45479;-38
2022/07/21 01:30:44;;;;;;;;;4.75;3.75;;;;;23.74;51.17;101373.22;5031617;28;47745;-39
2022/07/21 01:33:09;;;;;;;;;4.50;3.00;;;;;23.75;51.22;101363.41;5020794;28;45297;-39
2022/07/21 01:35:34;;;;;;;;;5.25;3.50;;;;;23.73;50.88;101346.63;5032561;28;45595;-38
2022/07/21 01:38:00;;;;;;;;;4.00;4.00;;;;;23.73;51.30;101352.84;5026727;28;65042;-38
2022/07/21 01:43:10;;;;;;;;;4.50;3.75;;;;;23.76;50.87;101349.06;5031115;28;45465;-39
2022/07/21 01:45:35;;;;;;;;;3.25;3.25;;;;;23.73;51.18;101347.50;5031512;28;45554;-39
2022/07/21 01:48:01;;;;;;;;;3.75;3.75;;;;;23.68;51.21;101346.97;5033258;28;45543;-39
2022/07/21 01:50:26;;;;;;;;;5.25;3.75;;;;;23.63;51.33;101339.28;5030004;28;66802;-37
2022/07/21 01:52:56;;;;;;;;;2.75;2.75;;;;;23.57;51.77;101352.22;5034911;28;45395;-37
2022/07/21 01:55:23;;;;;;;;;5.75;5.00;;;;;23.53;51.81;101364.09;5030696;28;46112;-37
2022/07/21 01:57:48;;;;;;;;;5.50;3.25;;;;;23.54;52.18;101365.81;5035402;28;45406;-37
2022/07/21 02:00:14;;;;;;;;;4.00;4.00;;;;;23.55;52.06;101359.50;5027314;28;45467;-38
2022/07/21 02:02:39;;;;;;;;;4.00;3.50;;;;;23.56;51.91;101367.41;5029766;28;45416;-38
2022/07/21 02:05:05;;;;;;;;;3.25;3.00;;;;;23.57;51.84;101361.09;5034618;28;60129;-38
2022/07/21 02:07:30;;;;;;;;;5.00;5.00;;;;;23.57;51.56;101366.44;5033203;28;45461;-37
2022/07/21 02:09:55;;;;;;;;;4.75;4.75;;;;;23.59;51.56;101369.88;5036166;28;46298;-38
2022/07/21 02:12:21;;;;;;;;;5.50;4.75;;;;;23.56;51.61;101364.72;5028745;28;62167;-38
2022/07/21 02:14:46;;;;;;;;;5.75;5.00;;;;;23.56;52.12;101371.91;5027992;28;64091;-38
2022/07/21 02:17:12;;;;;;;;;8.25;6.50;;;;;23.49;51.71;101375.00;5030290;28;65717;-38
2022/07/21 02:19:37;;;;;;;;;12.00;9.00;;;;;23.49;52.09;101372.31;5031782;28;46060;-37
2022/07/21 02:22:02;;;;;;;;;7.50;6.00;;;;;23.52;51.77;101376.63;5029919;28;45316;-38
2022/07/21 02:24:28;;;;;;;;;5.00;4.50;;;;;23.50;52.22;101374.06;5031320;28;45758;-38
2022/07/21 02:26:53;;;;;;;;;5.00;5.00;;;;;23.48;51.68;101372.47;5032591;28;45458;-38
2022/07/21 02:29:18;;;;;;;;;9.00;6.00;;;;;23.46;52.31;101369.03;5026039;28;45477;-38
2022/07/21 02:31:44;;;;;;;;;5.00;5.00;;;;;23.40;51.92;101366.81;4996871;28;70956;-45
2022/07/21 02:34:09;;;;;;;;;6.00;4.25;;;;;23.35;52.40;101366.28;5025315;28;59976;-38
2022/07/21 02:36:34;;;;;;;;;7.75;6.00;;;;;23.35;52.24;101368.94;5025277;28;63185;-38
2022/07/21 02:39:00;;;;;;;;;7.00;7.00;;;;;23.36;51.76;101365.31;5025882;28;66719;-38
2022/07/21 02:41:25;;;;;;;;;6.50;5.00;;;;;23.39;52.48;101367.75;5029464;28;45313;-38
2022/07/21 02:43:50;;;;;;;;;7.00;7.00;;;;;23.38;51.85;101377.59;5034020;28;61018;-38
2022/07/21 02:46:16;;;;;;;;;11.50;9.50;;;;;23.40;52.10;101374.81;5027995;28;66940;-38
2022/07/21 02:48:41;;;;;;;;;8.50;7.50;;;;;23.41;52.01;101371.16;5029939;28;45344;-38
2022/07/21 02:51:06;;;;;;;;;9.50;7.75;;;;;23.39;52.02;101379.31;5028570;28;65378;-38
2022/07/21 02:53:32;;;;;;;;;6.50;6.00;;;;;23.40;52.42;101382.84;5027001;28;45375;-38
2022/07/21 02:55:57;;;;;;;;;8.00;7.00;;;;;23.42;52.53;101383.56;5029617;28;57301;-38
2022/07/21 02:58:28;;;;;;;;;9.50;7.50;;;;;23.43;52.18;101386.13;5027014;28;52641;-38
2022/07/21 03:01:02;;;;;;;;;6.50;4.75;;;;;23.45;52.27;101388.69;5026917;28;45478;-38
2022/07/21 03:03:30;;;;;;;;;10.00;8.00;;;;;23.42;52.57;101387.09;5018325;28;45282;-46
2022/07/21 03:05:56;;;;;;;;;14.75;8.00;;;;;23.34;52.08;101384.13;5024595;28;45690;-38
2022/07/21 03:08:22;;;;;;;;;11.00;8.25;;;;;23.31;52.53;101377.16;5027818;28;45670;-38
2022/07/21 03:10:48;;;;;;;;;12.50;9.25;;;;;23.33;52.59;101389.56;5032635;28;45397;-38
2022/07/21 03:13:14;;;;;;;;;15.75;11.00;;;;;23.28;52.22;101385.41;5028409;28;45530;-38
2022/07/21 03:15:39;;;;;;;;;11.25;10.00;;;;;23.23;52.33;101387.56;5028731;28;45443;-38
2022/07/21 03:18:05;;;;;;;;;9.25;9.00;;;;;23.20;52.71;101395.78;5036173;28;45404;-38
2022/07/21 03:20:34;;;;;;;;;9.00;8.50;;;;;23.15;52.65;101397.91;5000660;28;62472;-38
2022/07/21 03:22:59;;;;;;;;;9.50;7.75;;;;;23.17;52.99;101393.31;5033416;28;45457;-38
2022/07/21 03:25:25;;;;;;;;;11.25;10.50;;;;;23.18;52.45;101389.69;5031542;28;45351;-38
2022/07/21 03:27:51;;;;;;;;;11.00;8.50;;;;;23.18;52.79;101395.03;5030353;28;45443;-38
2022/07/21 03:30:17;;;;;;;;;13.75;10.00;;;;;23.20;52.83;101398.44;5033449;28;45490;-38
2022/07/21 03:32:43;;;;;;;;;8.50;8.00;;;;;23.21;52.57;101397.47;5030346;28;45297;-38
2022/07/21 03:35:13;;;;;;;;;13.75;9.25;;;;;23.21;52.89;101402.81;5035999;28;45422;-38
2022/07/21 03:37:58;;;;;;;;;10.75;9.75;;;;;23.21;52.29;101402.81;5033622;28;46101;-38
2022/07/21 03:40:27;;;;;;;;;10.50;9.00;;;;;23.20;52.45;101403.78;5034223;28;45818;-37
2022/07/21 03:42:54;;;;;;;;;13.75;10.25;;;;;23.20;52.60;101414.47;5036743;28;45534;-38
2022/07/21 03:45:21;;;;;;;;;15.00;11.25;;;;;23.19;52.92;101411.91;5031701;28;45315;-38
2022/07/21 03:47:46;;;;;;;;;10.25;9.25;;;;;23.11;52.60;101405.28;5035086;28;48374;-38
2022/07/21 03:50:12;;;;;;;;;14.50;11.00;;;;;23.06;52.64;101414.56;5033335;28;45514;-38
2022/07/21 03:52:38;;;;;;;;;8.00;8.00;;;;;23.00;52.48;101410.47;5028506;28;45376;-38
2022/07/21 03:55:12;;;;;;;;;13.75;12.25;;;;;22.94;52.73;101419.75;5029194;28;45468;-38
2022/07/21 03:57:58;;;;;;;;;16.00;11.50;;;;;22.85;53.02;101412.38;5031850;28;45637;-38
2022/07/21 04:00:25;;;;;;;;;12.75;10.75;;;;;22.83;53.38;101424.13;5032146;28;45466;-38
2022/07/21 04:02:51;;;;;;;;;13.00;12.75;;;;;22.73;53.07;101411.41;5032459;28;45383;-38
2022/07/21 04:05:18;;;;;;;;;14.50;11.25;;;;;22.69;53.56;101412.56;5035152;28;45269;-38
2022/07/21 04:07:45;;;;;;;;;15.25;12.50;;;;;22.70;53.49;101416.94;5032449;28;45163;-37
2022/07/21 04:10:12;;;;;;;;;14.75;11.00;;;;;22.74;53.50;101421.09;5028036;28;45713;-41
2022/07/21 04:12:37;;;;;;;;;15.75;12.50;;;;;22.74;53.99;101423.78;5032057;28;45507;-38
2022/07/21 04:15:04;;;;;;;;;14.50;13.75;;;;;22.68;53.39;101420.66;5030280;28;51682;-38
2022/07/21 04:17:30;;;;;;;;;15.75;12.25;;;;;22.61;53.54;101424.69;5032039;28;45482;-38
2022/07/21 04:19:55;;;;;;;;;16.25;12.25;;;;;22.57;53.83;101416.03;5028068;28;53964;-38
2022/07/21 04:22:20;;;;;;;;;17.25;15.00;;;;;22.56;54.42;101425.88;5032041;28;61619;-39
2022/07/21 04:24:46;;;;;;;;;18.00;14.50;;;;;22.55;54.23;101425.97;5025754;28;45413;-37
2022/07/21 04:27:11;;;;;;;;;21.75;15.75;;;;;22.55;54.21;101421.47;5031962;28;62677;-38
2022/07/21 04:29:37;;;;;;;;;17.50;14.25;;;;;22.59;54.01;101426.63;5029937;28;45626;-39
2022/07/21 04:32:02;;;;;;;;;15.25;12.50;;;;;22.58;54.07;101433.78;5031482;28;50018;-38
2022/07/21 04:34:28;;;;;;;;;13.50;13.50;;;;;22.58;54.04;101430.25;5035946;28;45493;-38
2022/07/21 04:36:54;;;;;;;;;16.25;13.75;;;;;22.61;54.39;101430.03;5034487;28;46040;-38
2022/07/21 04:39:19;;;;;;;;;17.00;16.25;;;;;22.61;54.42;101438.03;5029878;28;46203;-37
2022/07/21 04:41:44;;;;;;;;;17.25;15.00;;;;;22.54;54.42;101433.13;5034037;28;45422;-37
2022/07/21 04:44:10;;;;;;;;;16.00;14.50;;;;;22.52;54.56;101436.81;5026704;28;45277;-38
2022/07/21 04:46:35;;;;;;;;;19.75;15.50;;;;;22.54;54.47;101432.25;5032252;28;45810;-38
2022/07/21 04:49:01;;;;;;;;;18.50;14.75;;;;;22.53;54.11;101442.06;5020697;28;45889;-38
2022/07/21 04:51:26;;;;;;;;;16.25;15.50;;;;;22.58;54.99;101440.94;5030791;28;45518;-38
2022/07/21 04:53:51;;;;;;;;;19.00;13.25;;;;;22.56;54.16;101435.69;5028135;28;47051;-39
2022/07/21 04:56:17;;;;;;;;;22.00;16.75;;;;;22.51;54.39;101441.31;5033510;28;63904;-38
2022/07/21 04:58:42;;;;;;;;;18.50;15.25;;;;;22.48;55.04;101443.34;5027198;28;60397;-38
2022/07/21 05:01:07;;;;;;;;;14.50;13.25;;;;;22.52;54.88;101436.81;5033795;28;67261;-38
2022/07/21 05:03:33;;;;;;;;;18.00;16.25;;;;;22.52;54.65;101448.38;5026778;28;64595;-39
2022/07/21 05:05:58;;;;;;;;;18.25;16.50;;;;;22.50;54.60;101444.09;5031345;28;68099;-38
2022/07/21 05:08:26;;;;;;;;;14.75;13.00;;;;;22.49;54.76;101450.38;5027721;28;57260;-39
2022/07/21 05:10:51;;;;;;;;;16.75;14.75;;;;;22.46;54.54;101443.44;5033607;28;46349;-38
2022/07/21 05:13:17;;;;;;;;;18.50;16.75;;;;;22.50;54.53;101441.41;5030047;28;45341;-39
2022/07/21 05:15:42;;;;;;;;;17.75;16.75;;;;;22.54;54.45;101442.91;5031965;28;73526;-38
2022/07/21 05:18:08;;;;;;;;;17.25;13.00;;;;;22.54;54.84;101446.47;5030659;28;73701;-38
2022/07/21 05:20:33;;;;;;;;;17.00;14.00;;;;;22.62;54.64;101445.94;5030685;28;45464;-38
2022/07/21 05:22:58;;;;;;;;;20.00;16.50;;;;;22.63;54.38;101450.31;5029500;28;66972;-38
2022/07/21 05:25:24;;;;;;;;;19.50;16.00;;;;;22.66;54.42;101449.25;5033382;28;47049;-38
2022/07/21 05:27:49;;;;;;;;;17.50;15.00;;;;;22.63;54.32;101454.78;5035316;28;47679;-38
2022/07/21 05:30:14;;;;;;;;;16.25;14.25;;;;;22.63;54.33;101457.44;5028917;28;59940;-38
2022/07/21 05:32:40;;;;;;;;;18.50;16.50;;;;;22.62;54.67;101451.28;5034430;28;58725;-38
2022/07/21 05:35:10;;;;;;;;;15.75;14.75;;;;;22.63;55.01;101455.66;5027738;28;51997;-38
2022/07/21 05:37:36;;;;;;;;;15.50;13.50;;;;;22.67;54.74;101456.31;5027237;28;45351;-38
2022/07/21 05:40:03;;;;;;;;;19.00;14.50;;;;;22.65;54.07;101461.75;5025118;28;45642;-38
2022/07/21 05:42:28;;;;;;;;;20.25;15.50;;;;;22.67;54.67;101456.31;5021246;28;45244;-38
2022/07/21 05:44:53;;;;;;;;;16.25;13.75;;;;;22.68;54.61;101461.56;5022473;28;67336;-38
2022/07/21 05:47:19;;;;;;;;;20.25;16.00;;;;;22.73;54.37;101466.56;5043719;28;64668;-38
2022/07/21 05:49:44;;;;;;;;;15.50;14.00;;;;;22.75;54.71;101470.84;5022445;28;49231;-38
2022/07/21 05:52:09;;;;;;;;;13.50;13.00;;;;;22.77;54.39;101465.44;5032426;28;49753;-38
2022/07/21 05:54:34;;;;;;;;;18.50;15.25;;;;;22.76;54.44;101477.03;5027787;28;72621;-38
2022/07/21 05:57:02;;;;;;;;;17.75;14.00;;;;;22.75;54.09;101473.53;5028335;28;60751;-39
2022/07/21 05:59:27;;;;;;;;;19.00;16.00;;;;;22.80;54.70;101475.03;5032074;28;45472;-38
2022/07/21 06:01:52;;;;;;;;;18.00;17.50;;;;;22.82;54.22;101483.78;5029266;28;64708;-38
2022/07/21 06:04:18;;;;;;;;;21.25;17.00;;;;;22.84;54.46;101474.72;5027944;28;64837;-39
2022/07/21 06:06:43;;;;;;;;;20.50;17.50;;;;;22.82;54.10;101484.63;5024947;28;45465;-38
2022/07/21 06:09:09;;;;;;;;;22.50;17.50;;;;;22.74;54.24;101487.81;5030955;28;66676;-38
2022/07/21 06:11:34;;;;;;;;;16.25;14.25;;;;;22.68;54.75;101482.91;5032930;28;45581;-38
2022/07/21 06:13:59;;;;;;;;;18.50;17.50;;;;;22.71;54.36;101485.34;5035586;28;45423;-39
2022/07/21 06:16:25;;;;;;;;;18.25;15.75;;;;;22.74;54.57;101492.31;5035625;28;62693;-38
2022/07/21 06:18:50;;;;;;;;;23.25;18.25;;;;;22.75;54.52;101489.53;5038672;28;45410;-37
2022/07/21 06:21:15;;;;;;;;;20.75;19.25;;;;;22.72;55.09;101492.41;5026383;28;45434;-39
2022/07/21 06:23:41;;;;;;;;;20.00;16.75;;;;;22.67;54.88;101489.19;5032258;28;46171;-38
2022/07/21 06:26:06;;;;;;;;;23.00;16.25;;;;;22.67;55.04;101491.84;5025730;28;63807;-38
2022/07/21 06:28:31;;;;;;;;;16.50;15.00;;;;;22.65;54.84;101490.25;5029282;28;67372;-38
2022/07/21 06:30:57;;;;;;;;;16.75;16.00;;;;;22.64;54.91;101492.03;5026634;28;50023;-38
2022/07/21 06:33:22;;;;;;;;;17.75;14.75;;;;;22.64;54.61;101488.53;5026600;28;56559;-38
2022/07/21 06:35:47;;;;;;;;;17.75;17.50;;;;;22.63;54.57;101493.00;5031206;28;45482;-38
2022/07/21 06:38:13;;;;;;;;;16.50;15.50;;;;;22.65;54.75;101498.25;5030895;28;45503;-39
2022/07/21 06:40:38;;;;;;;;;20.00;15.50;;;;;22.64;55.03;101494.72;5028138;28;45477;-38
2022/07/21 06:43:03;;;;;;;;;18.50;14.50;;;;;22.62;54.95;101491.28;5026417;28;45313;-38
2022/07/21 06:45:29;;;;;;;;;20.00;16.25;;;;;22.60;55.02;101495.88;5030387;28;56444;-38
2022/07/21 06:48:02;;;;;;;;;23.00;16.50;;;;;22.60;54.90;101498.53;5030059;28;45555;-38
2022/07/21 06:50:27;;;;;;;;;21.25;15.50;;;;;22.64;55.16;101496.53;5029036;28;45866;-38
2022/07/21 06:52:52;;;;;;;;;17.25;17.00;;;;;22.65;55.22;101496.44;5033779;28;46021;-38
2022/07/21 06:55:18;;;;;;;;;23.00;16.00;;;;;22.64;54.83;101492.03;5032451;28;71904;-38
2022/07/21 06:57:44;;;;;;;;;21.00;17.00;;;;;22.64;55.18;101492.03;5036463;28;45481;-38
2022/07/21 07:00:10;;;;;;;;;24.25;18.25;;;;;22.65;55.32;101495.59;5036772;28;52909;-38
2022/07/21 07:02:35;;;;;;;;;20.00;16.75;;;;;22.67;55.34;101499.84;5028886;28;45876;-38
2022/07/21 07:05:01;;;;;;;;;17.75;16.25;;;;;22.68;55.17;101500.69;5030377;28;45525;-38
2022/07/21 07:07:29;;;;;;;;;18.75;13.25;;;;;22.70;54.84;101498.78;5033751;28;45478;-38
2022/07/21 07:09:54;;;;;;;;;21.75;18.00;;;;;22.73;54.72;101506.59;5027157;28;45585;-39
2022/07/21 07:12:20;;;;;;;;;17.50;16.00;;;;;22.76;55.45;101506.41;5029904;28;45893;-38
2022/07/21 07:14:45;;;;;;;;;17.75;16.25;;;;;22.76;55.41;101514.41;5031708;28;45707;-38
2022/07/21 07:17:15;;;;;;;;;20.00;19.00;;;;;22.77;55.31;101509.91;5032328;28;68151;-38
2022/07/21 07:19:41;;;;;;;;;21.75;18.00;;;;;22.78;54.88;101512.47;5029580;28;45515;-38
2022/07/21 07:22:06;;;;;;;;;19.75;14.00;;;;;22.81;55.16;101520.28;5042228;28;71472;-38
2022/07/21 07:24:31;;;;;;;;;16.25;14.50;;;;;22.82;54.85;101513.13;5030860;28;53746;-38
2022/07/21 07:26:57;;;;;;;;;23.00;17.00;;;;;22.82;55.11;101513.97;5027589;28;60291;-38
2022/07/21 07:29:22;;;;;;;;;19.75;15.00;;;;;22.86;54.93;101515.50;5035696;28;45273;-37
2022/07/21 07:31:47;;;;;;;;;18.75;15.00;;;;;22.90;54.89;101516.16;5030084;28;70966;-38
2022/07/21 07:34:13;;;;;;;;;21.75;15.25;;;;;22.94;54.52;101517.66;5026492;28;57806;-36
2022/07/21 07:36:38;;;;;;;;;19.50;14.75;;;;;;;;5027926;28;46663;-36
2022/07/21 07:39:04;;;;;;;;;15.25;13.25;;;;;23.15;54.83;101515.38;5036956;28;45563;-36
2022/07/21 07:41:31;;;;;;;;;16.50;15.50;;;;;23.26;54.02;101517.31;5024256;28;45447;-36
2022/07/21 07:43:58;;;;;;;;;20.25;15.00;;;;;23.36;53.80;101517.56;5026983;28;45406;-36
2022/07/21 07:46:23;;;;;;;;;17.75;15.50;;;;;23.44;54.06;101526.78;5030481;28;45517;-36
2022/07/21 07:48:48;;;;;;;;;15.75;15.25;;;;;23.54;53.82;101518.13;5027798;28;46217;-36
2022/07/21 07:51:14;;;;;;;;;14.00;12.50;;;;;23.61;53.54;101528.25;5030767;28;50433;-36
2022/07/21 07:53:40;;;;;;;;;15.75;13.00;;;;;23.69;53.47;101533.06;5021805;28;45412;-37
2022/07/21 07:56:06;;;;;;;;;12.25;9.50;;;;;23.76;53.55;101530.81;5034521;28;45364;-36
2022/07/21 07:58:31;;;;;;;;;14.00;13.00;;;;;23.83;53.17;101527.66;5027964;28;45364;-37
2022/07/21 08:00:57;;;;;;;;;12.50;11.50;;;;;23.89;53.07;101529.03;5032198;28;45356;-37
2022/07/21 08:03:24;;;;;;;;;15.25;14.25;;;;;23.95;52.80;101536.59;5034802;28;72185;-36
2022/07/21 08:05:50;;;;;;;;;17.25;14.50;;;;;24.01;52.76;101540.66;5036941;28;45344;-37
2022/07/21 08:08:15;;;;;;;;;14.25;13.00;;;;;24.06;52.48;101541.19;5031814;28;45411;-37
2022/07/21 08:10:41;;;;;;;;;12.50;10.50;;;;;24.12;52.54;101542.59;5033360;28;47297;-37
2022/07/21 08:13:08;;;;;;;;;15.00;11.00;;;;;24.17;52.39;101545.78;5038478;28;45294;-37
2022/07/21 08:15:34;;;;;;;;;14.25;13.25;;;;;24.20;52.29;101540.19;5032178;28;45332;-37
2022/07/21 08:17:59;;;;;;;;;15.25;12.25;;;;;24.25;51.99;101548.75;5038012;28;45514;-37
2022/07/21 08:20:25;;;;;;;;;14.25;12.75;;;;;24.29;52.02;101549.38;5033794;28;45430;-37
2022/07/21 08:22:50;;;;;;;;;16.00;13.75;;;;;24.33;51.98;101550.88;5040127;28;46604;-37
2022/07/21 08:25:15;;;;;;;;;13.50;12.25;;;;;24.35;51.74;101548.97;5037421;28;49938;-37
2022/07/21 08:27:42;;;;;;;;;15.00;14.25;;;;;24.39;51.82;101556.63;5033381;28;54248;-37
2022/07/21 08:30:08;;;;;;;;;18.25;14.25;;;;;24.42;51.71;101552.91;5044932;28;46072;-37
2022/07/21 08:32:34;;;;;;;;;14.50;12.50;;;;;24.46;51.59;101554.38;5037865;28;45379;-37
2022/07/21 08:34:59;;;;;;;;;12.50;12.50;;;;;24.49;51.54;101556.84;5034461;28;45260;-37
2022/07/21 08:37:25;;;;;;;;;16.25;14.00;;;;;24.52;51.50;101553.91;5028082;28;45689;-38
2022/07/21 08:39:50;;;;;;;;;16.25;13.75;;;;;24.54;51.40;101554.72;5027582;28;64885;-37
2022/07/21 08:42:16;;;;;;;;;18.00;13.25;;;;;24.58;51.32;101561.53;5031974;28;70177;-37
2022/07/21 08:44:42;;;;;;;;;13.75;10.75;;;;;24.60;50.93;101550.72;5028969;28;45368;-37
2022/07/21 08:47:07;;;;;;;;;15.25;14.00;;;;;24.64;50.98;101562.91;5028445;28;45631;-37
2022/07/21 08:49:36;;;;;;;;;15.00;14.50;;;;;24.66;51.31;101560.97;5023886;28;49868;-37
2022/07/21 08:52:02;;;;;;;;;12.00;12.00;;;;;24.68;51.24;101555.50;5026235;28;45323;-38
2022/07/21 08:54:28;;;;;;;;;15.25;13.25;;;;;24.71;50.99;101556.13;5027844;28;45343;-37
2022/07/21 08:56:54;;;;;;;;;14.25;12.25;;;;;24.72;51.21;101552.50;5028867;28;45445;-37
2022/07/21 08:59:20;;;;;;;;;16.75;14.25;;;;;24.75;50.74;101554.09;5032327;28;47171;-37
2022/07/21 09:01:45;;;;;;;;;16.75;14.00;;;;;24.78;50.77;101559.22;5020913;28;45256;-37
2022/07/21 09:04:32;;;;;;;;;14.75;12.50;;;;;24.81;50.97;101551.81;5021268;28;45332;-37
2022/07/21 09:07:05;;;;;;;;;16.00;13.00;;;;;24.83;50.68;101549.03;5033750;28;45470;-37
2022/07/21 09:09:32;;;;;;;;;15.25;13.00;;;;;24.85;50.65;101555.13;5034508;28;45404;-37
2022/07/21 09:11:58;;;;;;;;;14.50;12.50;;;;;24.87;50.91;101549.66;5029650;28;45598;-37
2022/07/21 09:14:30;;;;;;;;;14.75;11.50;;;;;24.90;50.50;101557.47;5035528;28;45281;-37
2022/07/21 09:17:00;;;;;;;;;13.75;12.00;;;;;24.93;50.67;101552.72;5031784;28;45368;-37
2022/07/21 09:19:33;;;;;;;;;15.25;12.75;;;;;24.95;50.59;101555.28;5035598;28;45392;-37
2022/07/21 09:22:00;;;;;;;;;14.25;14.25;;;;;24.97;50.52;101559.56;5029457;28;45282;-37
2022/07/21 09:24:29;;;;;;;;;16.00;12.50;;;;;25.00;50.36;101555.78;5024018;28;45458;-37
2022/07/21 09:27:06;;;;;;;;;14.25;12.00;;;;;25.02;50.23;101554.72;5034545;28;45838;-37
2022/07/21 09:29:34;;;;;;;;;20.50;13.75;;;;;25.03;50.38;101552.88;5043389;28;47427;-37
2022/07/21 09:32:13;;;;;;;;;14.25;13.75;;;;;25.06;50.21;101549.97;5032701;28;45527;-35
2022/07/21 09:34:38;;;;;;;;;15.00;12.00;;;;;25.07;49.96;101551.66;5031187;28;45320;-37
2022/07/21 09:37:06;;;;;;;;;16.50;13.75;;;;;25.09;50.08;101555.13;5035381;28;45417;-37
2022/07/21 09:39:51;;;;;;;;;11.25;10.50;;;;;25.12;49.79;101560.22;5030890;28;45533;-37
2022/07/21 09:42:19;;;;;;;;;14.50;11.50;;;;;25.14;50.03;101568.13;5035353;28;45440;-38
2022/07/21 09:44:47;;;;;;;;;14.75;11.50;;;;;25.14;49.90;101563.66;5028472;28;45744;-37
2022/07/21 09:47:16;;;;;;;;;16.00;13.75;;;;;25.17;49.91;101566.06;5035500;28;45474;-37
2022/07/21 09:49:41;;;;;;;;;16.00;14.50;;;;;25.20;49.86;101567.69;5035651;28;45879;-37
2022/07/21 09:52:29;;;;;;;;;15.00;14.25;;;;;25.20;49.85;101557.81;5031472;28;46949;-37
2022/07/21 09:54:55;;;;;;;;;19.50;14.75;;;;;25.21;49.76;101555.97;5025175;28;45308;-37
2022/07/21 09:57:21;;;;;;;;;20.50;16.00;;;;;25.24;49.76;101552.22;5034794;28;45370;-43
2022/07/21 09:59:48;;;;;;;;;17.75;14.00;;;;;25.26;49.66;101551.16;5034955;28;45395;-37
2022/07/21 10:02:26;;;;;;;;;16.75;14.75;;;;;25.27;49.51;101550.22;5033077;28;45893;-37
2022/07/21 10:04:56;;;;;;;;;15.75;13.00;;;;;25.28;49.74;101551.91;5034603;28;45464;-37
2022/07/21 10:07:22;;;;;;;;;12.75;11.75;;;;;25.30;49.34;101541.06;5047716;28;45364;-37
2022/07/21 10:09:47;;;;;;;;;16.00;14.75;;;;;25.33;49.41;101546.19;5033694;28;45925;-37
2022/07/21 10:12:16;;;;;;;;;15.25;11.50;;;;;25.35;49.37;101541.56;5033547;28;45365;-37
2022/07/21 10:14:43;;;;;;;;;14.50;13.25;;;;;25.38;49.30;101539.50;5027304;28;45296;-36
2022/07/21 10:17:08;;;;;;;;;18.00;14.00;;;;;25.41;49.22;101543.78;5034775;28;45540;-35
2022/07/21 10:19:42;;;;;;;;;14.50;13.50;;;;;25.43;49.36;101546.31;5026118;28;45290;-35
2022/07/21 10:22:31;;;;;;;;;15.75;14.50;;;;;25.44;49.54;101546.22;5032269;28;45351;-35
2022/07/21 10:24:57;;;;;;;;;14.25;12.50;;;;;25.46;49.31;101546.09;5013739;28;45362;-36
2022/07/21 10:27:22;;;;;;;;;16.75;14.25;;;;;25.47;49.42;101542.47;5035983;28;53751;-36
2022/07/21 10:29:47;;;;;;;;;12.75;12.25;;;;;25.49;49.10;101551.22;5036209;28;46641;-36
2022/07/21 10:32:18;;;;;;;;;16.25;14.00;;;;;25.49;49.25;101549.41;5034142;28;45343;-36
2022/07/21 10:34:44;;;;;;;;;18.00;14.00;;;;;25.51;49.14;101555.50;5026180;28;45366;-36
2022/07/21 10:37:10;;;;;;;;;15.25;14.25;;;;;25.53;48.98;101550.88;5032501;28;45566;-36
2022/07/21 10:39:35;;;;;;;;;15.50;13.75;;;;;25.54;49.06;101552.56;5032631;28;46329;-36
2022/07/21 10:42:14;;;;;;;;;16.75;14.00;;;;;25.56;48.71;101555.13;5017355;28;45750;-37
2022/07/21 10:44:40;;;;;;;;;14.25;13.25;;;;;25.58;48.89;101559.41;5033882;28;45354;-37
2022/07/21 10:47:11;;;;;;;;;16.75;14.50;;;;;25.61;49.04;101555.63;5035283;28;45429;-37
2022/07/21 10:49:46;;;;;;;;;17.00;14.25;;;;;25.63;48.81;101561.72;5044599;28;47445;-37
2022/07/21 10:52:39;;;;;;;;;15.50;13.75;;;;;25.63;48.46;101559.06;5028288;28;45456;-37
2022/07/21 10:55:10;;;;;;;;;12.25;11.25;;;;;25.64;48.84;101552.72;5030956;28;45347;-37
2022/07/21 10:57:43;;;;;;;;;14.00;14.00;;;;;25.66;48.99;101555.28;5036347;28;45190;-37
2022/07/21 11:00:15;;;;;;;;;19.75;16.75;;;;;25.66;48.67;101553.47;5028216;28;46198;-37
2022/07/21 11:02:40;;;;;;;;;17.25;15.00;;;;;25.67;48.90;101551.63;5033769;28;45821;-37
2022/07/21 11:05:06;;;;;;;;;14.00;11.75;;;;;25.66;48.66;101548.09;5028836;28;51752;-36
2022/07/21 11:08:09;;;;;;;;;14.00;13.25;;;;;25.68;48.83;101551.50;5031858;28;45336;-37
2022/07/21 11:10:36;;;;;;;;;16.00;14.50;;;;;25.68;48.49;101553.34;5030438;28;45439;-37
2022/07/21 11:13:02;;;;;;;;;15.25;12.00;;;;;25.68;48.49;101551.50;5031260;28;45960;-37
2022/07/21 11:15:53;;;;;;;;;14.50;13.50;;;;;25.69;48.45;101547.88;5032278;28;59757;-37